Time;durP1;ratioP1;P1;durP2;ratioP2;P2;SDS_P1;SDS_P2;PMS_P1;PMS_P2;Temp;Humidity;BMP_temperature;BMP_pressure;BME280_temperature;BME280_humidity;BME280_pressure;Samples;Min_cycle;Max_cycle;Signal;HPM_P1;HPM_P2
2021/06/05 17:04:33;;;;;;;92.17;47.30;;;17.00;99.90;;;;;;8428215;27;20570;-76
2021/06/05 17:08:35;;;;;;;90.27;41.37;;;17.50;99.90;;;;;;8430427;28;20446;-75
2021/06/05 17:12:38;;;;;;;85.43;41.47;;;18.50;99.90;;;;;;8429028;28;20185;-75
2021/06/05 17:16:39;;;;;;;88.17;42.80;;;19.10;99.90;;;;;;8424986;28;20447;-75
2021/06/05 17:20:41;;;;;;;81.10;44.93;;;19.40;99.90;;;;;;8411042;28;21062;-77
2021/06/05 17:24:42;;;;;;;92.40;45.20;;;19.50;99.90;;;;;;8421252;28;20794;-75
2021/06/05 17:28:43;;;;;;;83.87;44.43;;;19.40;99.90;;;;;;8425767;28;21022;-76
2021/06/05 17:32:43;;;;;;;90.13;45.03;;;19.40;99.90;;;;;;8437686;28;20189;-77
2021/06/05 17:36:47;;;;;;;83.37;42.20;;;19.40;99.90;;;;;;8437859;28;20450;-76
2021/06/05 17:40:48;;;;;;;80.53;43.43;;;19.40;99.90;;;;;;8431224;28;20219;-77
2021/06/05 17:44:52;;;;;;;77.33;42.27;;;19.40;99.90;;;;;;8423161;28;20534;-75
2021/06/05 17:48:53;;;;;;;75.57;46.03;;;19.50;99.90;;;;;;8420086;28;20495;-77
2021/06/05 17:52:53;;;;;;;79.47;42.50;;;19.40;99.90;;;;;;8424979;28;20455;-74
2021/06/05 17:56:57;;;;;;;73.93;42.20;;;19.40;99.80;;;;;;8420654;28;20317;-75
2021/06/05 18:00:59;;;;;;;69.57;42.73;;;19.40;99.60;;;;;;8434565;28;20220;-75
2021/06/05 18:05:00;;;;;;;75.57;45.10;;;19.40;99.60;;;;;;8431015;28;20790;-76
2021/06/05 18:09:01;;;;;;;83.40;46.77;;;19.40;99.90;;;;;;8427469;28;21155;-76
2021/06/05 18:13:04;;;;;;;76.77;46.70;;;19.40;99.70;;;;;;8412295;28;20196;-76
2021/06/05 18:17:07;;;;;;;81.20;47.33;;;19.40;99.70;;;;;;8397237;28;20185;-75
2021/06/05 18:21:11;;;;;;;77.83;46.90;;;19.40;99.70;;;;;;8403114;28;20523;-74
2021/06/05 18:25:16;;;;;;;74.10;45.80;;;19.30;99.70;;;;;;8412252;28;20938;-75
2021/06/05 18:29:17;;;;;;;64.30;40.00;;;19.40;99.60;;;;;;8414675;28;20436;-75
2021/06/05 18:33:31;;;;;;;66.47;38.60;;;19.30;99.50;;;;;;8423849;28;20956;-75
2021/06/05 18:37:33;;;;;;;67.30;41.27;;;19.30;99.50;;;;;;8425620;28;20436;-75
2021/06/05 18:41:36;;;;;;;66.27;40.63;;;19.30;99.40;;;;;;8414417;28;20460;-76
2021/06/05 18:45:41;;;;;;;60.13;37.60;;;19.30;99.40;;;;;;8424025;28;20449;-76
2021/06/05 18:49:44;;;;;;;72.83;43.70;;;19.30;99.40;;;;;;8419353;28;20581;-76
2021/06/05 18:53:45;;;;;;;71.37;41.70;;;19.20;99.40;;;;;;8418950;28;20967;-77
2021/06/05 18:57:46;;;;;;;80.97;45.40;;;19.20;99.50;;;;;;8422012;28;20937;-76
2021/06/05 19:01:52;;;;;;;92.37;50.57;;;19.10;99.60;;;;;;8417667;28;20469;-76
2021/06/05 19:05:52;;;;;;;88.93;53.80;;;19.00;99.90;;;;;;8417241;28;20440;-74
2021/06/05 19:09:53;;;;;;;87.20;47.73;;;19.00;99.80;;;;;;8420147;28;20446;-76
2021/06/05 19:13:54;;;;;;;83.03;51.17;;;19.00;99.80;;;;;;8423564;28;20199;-75
2021/06/05 19:17:55;;;;;;;74.07;45.87;;;19.00;99.90;;;;;;8409430;28;20188;-76
2021/06/05 19:21:56;;;;;;;72.77;42.10;;;19.00;99.90;;;;;;8413607;28;20474;-76
2021/06/05 19:26:00;;;;;;;64.43;41.43;;;19.00;99.90;;;;;;8419513;28;20188;-75
2021/06/05 19:30:01;;;;;;;78.83;45.20;;;19.00;99.80;;;;;;8421117;28;20440;-75
2021/06/05 19:34:04;;;;;;;74.03;46.37;;;19.00;99.80;;;;;;8423587;28;21080;-75
2021/06/05 19:38:05;;;;;;;90.43;51.70;;;19.00;99.70;;;;;;8418916;28;20454;-75
2021/06/05 19:42:07;;;;;;;95.30;55.60;;;19.00;99.70;;;;;;8417650;28;20478;-76
2021/06/05 19:46:08;;;;;;;91.83;50.17;;;19.00;99.70;;;;;;8422803;28;20212;-75
2021/06/05 19:50:10;;;;;;;106.13;57.63;;;18.90;99.80;;;;;;8418110;28;20455;-74
2021/06/05 19:54:12;;;;;;;99.37;57.07;;;18.90;99.80;;;;;;8421692;28;20446;-75
2021/06/05 19:58:19;;;;;;;102.03;59.07;;;18.90;99.80;;;;;;8417290;28;20446;-75
2021/06/05 20:02:20;;;;;;;99.57;58.00;;;18.90;99.90;;;;;;8411472;28;20564;-76
2021/06/05 20:06:23;;;;;;;96.33;56.07;;;18.80;99.90;;;;;;8416840;28;20475;-76
2021/06/05 20:10:26;;;;;;;107.23;59.30;;;18.80;99.90;;;;;;8412890;28;20727;-76
2021/06/05 20:14:27;;;;;;;104.43;58.73;;;18.80;99.90;;;;;;8411211;28;20879;-76
2021/06/05 20:18:30;;;;;;;110.10;61.40;;;18.80;99.90;;;;;;8422204;28;20526;-77
2021/06/05 20:22:31;;;;;;;101.80;60.70;;;18.80;99.90;;;;;;8418682;28;20463;-76
2021/06/05 20:26:32;;;;;;;104.10;61.13;;;18.90;99.90;;;;;;8413043;28;20568;-76
2021/06/05 20:30:34;;;;;;;95.90;59.17;;;18.90;99.90;;;;;;8417333;28;20188;-76
2021/06/05 20:34:38;;;;;;;95.27;55.70;;;18.80;99.90;;;;;;8403131;28;20197;-76
2021/06/05 20:38:39;;;;;;;105.17;59.20;;;18.80;99.90;;;;;;8396958;28;20902;-75
2021/06/05 20:42:41;;;;;;;114.07;61.57;;;18.80;99.90;;;;;;8419831;28;20998;-77
2021/06/05 20:46:45;;;;;;;102.83;57.27;;;18.80;99.90;;;;;;8413846;28;20180;-76
2021/06/05 20:50:46;;;;;;;94.00;58.43;;;18.80;99.90;;;;;;8413240;28;20464;-76
2021/06/05 20:54:46;;;;;;;104.20;59.77;;;18.80;99.90;;;;;;8407589;28;20557;-75
2021/06/05 20:58:47;;;;;;;98.97;59.77;;;18.70;99.90;;;;;;8411364;28;20188;-75
2021/06/05 21:02:48;;;;;;;96.17;58.80;;;18.70;99.90;;;;;;8412605;28;20219;-76
2021/06/05 21:06:48;;;;;;;98.97;60.07;;;18.70;99.90;;;;;;8408336;28;20195;-76
2021/06/05 21:10:52;;;;;;;106.17;62.03;;;18.70;99.90;;;;;;8401295;28;20190;-74
2021/06/05 21:14:53;;;;;;;105.00;60.90;;;18.70;99.70;;;;;;8408196;28;20250;-77
2021/06/05 21:18:56;;;;;;;102.43;61.90;;;18.70;99.70;;;;;;8405710;28;20521;-75
2021/06/05 21:22:59;;;;;;;102.70;64.13;;;18.70;99.70;;;;;;8403201;28;20200;-76
2021/06/05 21:27:02;;;;;;;100.60;60.93;;;18.70;99.70;;;;;;8403483;28;20878;-76
2021/06/05 21:31:04;;;;;;;105.03;61.30;;;18.80;99.70;;;;;;8409879;28;20443;-76
2021/06/05 21:35:07;;;;;;;103.70;63.40;;;18.80;99.60;;;;;;8414019;28;20459;-76
2021/06/05 21:39:09;;;;;;;98.17;61.00;;;18.80;99.60;;;;;;8411909;28;20481;-76
2021/06/05 21:43:14;;;;;;;93.03;59.70;;;18.80;99.50;;;;;;8418128;28;20469;-76
2021/06/05 21:47:15;;;;;;;92.70;59.00;;;18.80;99.40;;;;;;8413742;28;20437;-75
2021/06/05 21:51:21;;;;;;;93.40;60.70;;;18.80;99.30;;;;;;8415370;28;20484;-76
2021/06/05 21:55:22;;;;;;;96.37;59.97;;;18.80;99.40;;;;;;8413383;28;20451;-76
2021/06/05 21:59:23;;;;;;;100.87;63.87;;;18.80;99.30;;;;;;8419706;28;20452;-75
2021/06/05 22:03:29;;;;;;;101.60;65.33;;;18.80;99.30;;;;;;8416997;28;20467;-75
2021/06/05 22:07:30;;;;;;;91.63;56.83;;;18.80;99.20;;;;;;8424950;28;20438;-75
2021/06/05 22:11:46;;;;;;;83.13;55.70;;;18.80;99.10;;;;;;8412457;28;20459;-74
2021/06/05 22:15:48;;;;;;;93.03;58.77;;;18.70;98.90;;;;;;8414779;28;20203;-75
2021/06/05 22:19:49;;;;;;;94.03;56.73;;;18.70;99.00;;;;;;8393997;28;20450;-74
2021/06/05 22:23:49;;;;;;;87.83;56.13;;;18.70;98.90;;;;;;8395855;28;20586;-75
2021/06/05 22:27:54;;;;;;;87.93;54.77;;;18.70;99.00;;;;;;8409243;28;20180;-75
2021/06/05 22:31:56;;;;;;;94.07;58.27;;;18.60;99.00;;;;;;8412382;28;20188;-75
2021/06/05 22:36:05;;;;;;;87.70;57.10;;;18.60;98.90;;;;;;8421033;28;20847;-77
2021/06/05 22:40:15;;;;;;;87.07;56.80;;;18.60;99.10;;;;;;8410377;28;20437;-76
2021/06/05 22:44:16;;;;;;;87.07;57.13;;;18.50;99.10;;;;;;8413849;28;20490;-75
2021/06/05 22:48:17;;;;;;;92.07;55.23;;;18.50;99.10;;;;;;8417465;28;20574;-76
2021/06/05 22:52:20;;;;;;;82.90;53.27;;;18.50;99.20;;;;;;8420871;28;20450;-76
2021/06/05 22:56:24;;;;;;;90.97;58.30;;;18.50;99.20;;;;;;8412117;28;20443;-75
2021/06/05 23:00:36;;;;;;;90.60;56.63;;;18.50;99.20;;;;;;8415927;28;20781;-75
2021/06/05 23:04:37;;;;;;;90.73;55.97;;;18.40;99.20;;;;;;8425519;28;20467;-76
2021/06/05 23:08:46;;;;;;;89.50;55.87;;;18.40;99.20;;;;;;8431699;28;20452;-77
2021/06/05 23:12:49;;;;;;;91.80;55.13;;;18.40;99.20;;;;;;8428398;28;20188;-76
2021/06/05 23:16:50;;;;;;;90.43;53.30;;;18.40;99.20;;;;;;8412289;28;20443;-77
2021/06/05 23:20:51;;;;;;;81.07;52.37;;;18.40;98.90;;;;;;8425315;28;20438;-76
2021/06/05 23:24:52;;;;;;;80.53;49.30;;;18.30;98.80;;;;;;8420432;28;20438;-76
2021/06/05 23:28:53;;;;;;;85.23;48.47;;;18.30;98.70;;;;;;8423081;28;20437;-77
2021/06/05 23:32:54;;;;;;;82.03;46.80;;;18.30;98.80;;;;;;8427097;28;20623;-76
2021/06/05 23:37:18;;;;;;;82.33;47.87;;;18.20;98.90;;;;;;8422351;28;20533;-77
2021/06/05 23:41:28;;;;;;;93.67;52.53;;;18.20;98.80;;;;;;8414343;28;20493;-77
2021/06/05 23:45:31;;;;;;;77.10;49.33;;;18.20;98.70;;;;;;8418848;28;20439;-77
2021/06/05 23:49:32;;;;;;;86.10;50.43;;;18.20;98.70;;;;;;8425189;28;20448;-77
2021/06/05 23:53:35;;;;;;;81.97;49.73;;;18.20;98.70;;;;;;8420310;28;20436;-76
2021/06/05 23:57:36;;;;;;;83.67;51.20;;;18.20;98.60;;;;;;8420034;28;20451;-76
